createdAt,value
2018-03-22T00:02:19.480Z,-0.30
2018-03-22T00:04:47.461Z,-0.30
2018-03-22T00:07:16.345Z,-0.10
2018-03-22T00:09:44.284Z,-0.10
2018-03-22T00:12:13.144Z,-0.10
2018-03-22T00:14:41.453Z,-0.10
2018-03-22T00:17:09.519Z,-0.10
2018-03-22T00:19:37.490Z,-0.10
2018-03-22T00:22:05.584Z,-0.10
2018-03-22T00:24:33.738Z,-0.10
2018-03-22T00:27:01.607Z,0.00
2018-03-22T00:29:30.280Z,0.00
2018-03-22T00:31:58.454Z,-0.10
2018-03-22T00:34:26.429Z,0.00
2018-03-22T00:36:54.513Z,0.10
2018-03-22T00:39:23.516Z,0.20
2018-03-22T00:41:51.474Z,0.10
2018-03-22T00:44:20.139Z,0.10
2018-03-22T00:46:47.904Z,0.00
2018-03-22T00:49:17.059Z,-0.10
2018-03-22T00:51:45.069Z,-0.10
2018-03-22T00:54:13.139Z,-0.10
2018-03-22T00:56:41.205Z,-0.10
2018-03-22T00:59:08.995Z,-0.10
2018-03-22T01:01:37.899Z,-0.10
2018-03-22T01:04:06.039Z,-0.10
2018-03-22T01:06:34.109Z,0.00
2018-03-22T01:09:02.290Z,-0.10
2018-03-22T01:11:30.149Z,-0.10
2018-03-22T01:13:58.219Z,-0.10
2018-03-22T01:16:26.293Z,-0.10
2018-03-22T01:18:54.463Z,-0.10
2018-03-22T01:21:22.434Z,-0.10
2018-03-22T01:23:50.424Z,0.00
2018-03-22T01:26:18.475Z,-0.10
2018-03-22T01:28:46.748Z,-0.10
2018-03-22T01:31:14.622Z,-0.10
2018-03-22T01:33:42.479Z,-0.10
2018-03-22T01:36:10.247Z,-0.10
2018-03-22T01:38:37.919Z,-0.10
2018-03-22T01:41:07.408Z,-0.10
2018-03-22T01:43:35.585Z,-0.10
2018-03-22T01:46:03.658Z,-0.10
2018-03-22T01:48:31.631Z,-0.10
2018-03-22T01:50:59.796Z,-0.10
2018-03-22T01:53:27.982Z,-0.10
2018-03-22T01:55:55.767Z,0.00
2018-03-22T01:58:23.629Z,0.00
2018-03-22T02:00:52.387Z,0.10
2018-03-22T02:03:20.474Z,0.00
2018-03-22T02:05:50.171Z,0.10
2018-03-22T02:08:18.239Z,0.10
2018-03-22T02:10:46.218Z,0.10
2018-03-22T02:13:14.383Z,0.10
2018-03-22T02:15:42.559Z,0.20
2018-03-22T02:18:10.625Z,0.20
2018-03-22T02:20:38.404Z,0.20
2018-03-22T02:23:07.894Z,0.10
2018-03-22T02:25:35.779Z,0.10
2018-03-22T02:28:03.728Z,0.20
2018-03-22T02:30:31.908Z,0.30
2018-03-22T02:33:00.177Z,0.30
2018-03-22T02:35:28.151Z,0.30
2018-03-22T02:37:56.320Z,0.20
2018-03-22T02:40:24.286Z,0.30
2018-03-22T02:42:52.118Z,0.30
2018-03-22T02:45:20.834Z,0.20
2018-03-22T02:47:49.048Z,0.20
2018-03-22T02:50:17.910Z,0.20
2018-03-22T02:52:46.484Z,0.10
2018-03-22T02:55:14.252Z,0.20
2018-03-22T02:57:42.418Z,0.20
2018-03-22T03:00:10.918Z,0.20
2018-03-22T03:02:38.873Z,0.20
2018-03-22T03:05:06.639Z,0.10
2018-03-22T03:07:34.419Z,0.10
2018-03-22T03:10:02.466Z,0.10
2018-03-22T03:12:30.550Z,0.10
2018-03-22T03:14:58.711Z,0.20
2018-03-22T03:17:26.718Z,0.20
2018-03-22T03:19:56.898Z,0.10
2018-03-22T03:22:24.894Z,0.10
2018-03-22T03:24:52.938Z,0.10
2018-03-22T03:27:20.920Z,0.00
2018-03-22T03:29:48.894Z,0.10
2018-03-22T03:32:16.842Z,0.10
2018-03-22T03:34:44.608Z,0.10
2018-03-22T03:37:12.607Z,0.00
2018-03-22T03:39:40.544Z,-0.10
2018-03-22T03:42:08.749Z,-0.20
2018-03-22T03:44:36.788Z,-0.20
2018-03-22T03:47:04.861Z,-0.30
2018-03-22T03:49:32.630Z,-0.40
2018-03-22T03:52:00.614Z,-0.40
2018-03-22T03:54:29.143Z,-0.50
2018-03-22T03:56:57.249Z,-0.50
2018-03-22T03:59:25.334Z,-0.50
2018-03-22T04:01:53.388Z,-0.40
2018-03-22T04:04:21.673Z,-0.50
2018-03-22T04:06:49.641Z,-0.50
2018-03-22T04:09:17.498Z,-0.50
2018-03-22T04:11:45.676Z,-0.50
2018-03-22T04:14:13.751Z,-0.50
2018-03-22T04:16:41.644Z,-0.40
2018-03-22T04:19:10.398Z,-0.40
2018-03-22T04:21:38.476Z,-0.40
2018-03-22T04:24:06.354Z,-0.40
2018-03-22T04:26:34.229Z,-0.40
2018-03-22T04:29:02.167Z,-0.40
2018-03-22T04:31:30.339Z,-0.40
2018-03-22T04:33:58.586Z,-0.40
2018-03-22T04:36:26.833Z,-0.40
2018-03-22T04:38:55.612Z,-0.40
2018-03-22T04:41:24.363Z,-0.50
2018-03-22T04:43:52.432Z,-0.50
2018-03-22T04:46:20.407Z,-0.50
2018-03-22T04:48:48.303Z,-0.40
2018-03-22T04:51:16.237Z,-0.40
2018-03-22T04:53:44.223Z,-0.30
2018-03-22T04:56:13.748Z,-0.40
2018-03-22T04:58:42.628Z,-0.30
2018-03-22T05:01:10.467Z,-0.30
2018-03-22T05:03:38.546Z,-0.40
2018-03-22T05:06:06.624Z,-0.40
2018-03-22T05:08:34.377Z,-0.40
2018-03-22T05:11:02.588Z,-0.40
2018-03-22T05:13:31.439Z,-0.40
2018-03-22T05:15:59.368Z,-0.40
2018-03-22T05:18:27.393Z,-0.40
2018-03-22T05:20:55.362Z,-0.30
2018-03-22T05:23:24.645Z,-0.40
2018-03-22T05:25:52.406Z,-0.40
2018-03-22T05:28:20.486Z,-0.40
2018-03-22T05:30:48.569Z,-0.30
2018-03-22T05:33:16.528Z,-0.20
2018-03-22T05:35:44.351Z,-0.20
2018-03-22T05:38:13.166Z,0.00
2018-03-22T05:40:41.545Z,0.00
2018-03-22T05:43:09.413Z,0.20
2018-03-22T05:45:37.492Z,0.30
2018-03-22T05:48:05.397Z,0.30
2018-03-22T05:50:34.136Z,0.60
2018-03-22T05:53:03.151Z,0.60
2018-03-22T05:55:31.320Z,0.80
2018-03-22T05:58:00.100Z,0.80
2018-03-22T06:00:28.283Z,0.80
2018-03-22T06:02:57.253Z,0.90
2018-03-22T06:05:25.535Z,0.90
2018-03-22T06:07:53.499Z,1.00
2018-03-22T06:10:21.372Z,1.00
2018-03-22T06:12:49.232Z,1.10
2018-03-22T06:15:17.426Z,1.30
2018-03-22T06:17:46.302Z,1.60
2018-03-22T06:20:14.267Z,1.60
2018-03-22T06:22:42.440Z,1.70
2018-03-22T06:25:10.713Z,1.60
2018-03-22T06:27:38.783Z,1.70
2018-03-22T06:30:06.762Z,1.70
2018-03-22T06:32:34.618Z,1.80
2018-03-22T06:35:02.593Z,2.10
2018-03-22T06:37:30.665Z,2.10
2018-03-22T06:39:58.420Z,2.20
2018-03-22T06:42:26.715Z,2.10
2018-03-22T06:44:54.672Z,2.20
2018-03-22T06:47:22.633Z,2.30
2018-03-22T06:49:50.401Z,2.40
2018-03-22T06:52:18.378Z,2.80
2018-03-22T06:54:46.448Z,3.40
2018-03-22T06:57:14.419Z,3.90
2018-03-22T06:59:42.424Z,3.90
2018-03-22T07:02:11.272Z,4.10
2018-03-22T07:04:39.233Z,4.00
2018-03-22T07:07:07.101Z,4.20
2018-03-22T07:09:35.074Z,4.20
2018-03-22T07:12:03.079Z,3.90
2018-03-22T07:14:31.860Z,3.30
2018-03-22T07:17:00.619Z,3.30
2018-03-22T07:19:28.810Z,3.30
2018-03-22T07:21:56.957Z,3.50
2018-03-22T07:24:24.944Z,4.10
2018-03-22T07:26:53.006Z,4.80
2018-03-22T07:29:21.073Z,5.20
2018-03-22T07:31:49.283Z,5.30
2018-03-22T07:34:18.141Z,5.30
2018-03-22T07:36:46.178Z,5.30
2018-03-22T07:39:14.154Z,5.20
2018-03-22T07:41:42.540Z,5.50
2018-03-22T07:44:13.082Z,5.40
2018-03-22T07:46:41.247Z,5.60
2018-03-22T07:49:09.323Z,5.20
2018-03-22T07:51:37.502Z,5.40
2018-03-22T07:54:05.711Z,5.40
2018-03-22T07:56:34.360Z,5.50
2018-03-22T07:59:02.325Z,5.50
2018-03-22T08:01:30.199Z,5.60
2018-03-22T08:03:58.023Z,5.90
2018-03-22T08:06:26.058Z,6.70
2018-03-22T08:08:53.992Z,7.50
2018-03-22T08:11:22.275Z,7.90
2018-03-22T08:13:50.259Z,7.30
2018-03-22T08:16:18.120Z,6.90
2018-03-22T08:18:46.020Z,6.50
2018-03-22T08:21:14.683Z,6.00
2018-03-22T08:23:42.631Z,6.00
2018-03-22T08:26:10.914Z,6.10
2018-03-22T08:28:38.882Z,6.00
2018-03-22T08:31:06.838Z,6.00
2018-03-22T08:33:34.603Z,5.80
2018-03-22T08:36:02.796Z,6.00
2018-03-22T08:38:30.736Z,5.60
2018-03-22T08:40:58.943Z,5.90
2018-03-22T08:43:26.879Z,6.20
2018-03-22T08:45:54.880Z,6.40
2018-03-22T08:48:22.826Z,6.50
2018-03-22T08:50:50.997Z,6.40
2018-03-22T08:53:18.896Z,6.60
2018-03-22T08:55:47.754Z,6.80
2018-03-22T08:58:15.639Z,6.80
2018-03-22T09:00:43.689Z,6.80
2018-03-22T09:03:11.556Z,6.60
2018-03-22T09:05:39.524Z,6.50
2018-03-22T09:08:07.725Z,6.90
2018-03-22T09:10:35.668Z,6.40
2018-03-22T09:13:03.545Z,6.20
2018-03-22T09:15:31.422Z,5.90
2018-03-22T09:17:59.573Z,5.60
2018-03-22T09:20:27.436Z,5.40
2018-03-22T09:22:55.419Z,5.30
2018-03-22T09:25:23.372Z,5.30
2018-03-22T09:27:51.677Z,5.30
2018-03-22T09:30:19.940Z,5.30
2018-03-22T09:32:47.873Z,5.00
2018-03-22T09:35:15.863Z,4.90
2018-03-22T09:37:43.958Z,4.80
2018-03-22T09:40:11.905Z,4.80
2018-03-22T09:42:39.795Z,5.00
2018-03-22T09:45:08.018Z,4.90
2018-03-22T09:47:36.020Z,4.60
2018-03-22T09:50:04.081Z,4.60
2018-03-22T09:52:32.721Z,4.40
2018-03-22T09:55:01.249Z,4.10
2018-03-22T09:57:29.133Z,4.10
2018-03-22T09:59:57.023Z,3.90
2018-03-22T10:02:26.079Z,3.80
2018-03-22T10:04:53.957Z,3.80
2018-03-22T10:07:22.029Z,3.80
2018-03-22T10:09:50.724Z,3.90
2018-03-22T10:12:18.702Z,4.20
2018-03-22T10:14:46.635Z,4.20
2018-03-22T10:17:14.611Z,4.00
2018-03-22T10:19:42.579Z,4.10
2018-03-22T10:22:10.469Z,4.30
2018-03-22T10:24:38.514Z,4.50
2018-03-22T10:27:06.580Z,4.50
2018-03-22T10:29:34.549Z,4.50
2018-03-22T10:32:02.929Z,4.80
2018-03-22T10:34:31.104Z,5.00
2018-03-22T10:36:59.174Z,5.40
2018-03-22T10:39:27.266Z,5.70
2018-03-22T10:41:55.521Z,6.20
2018-03-22T10:44:23.287Z,6.90
2018-03-22T10:46:51.455Z,7.80
2018-03-22T10:49:19.342Z,8.20
2018-03-22T10:51:47.398Z,8.70
2018-03-22T10:54:15.572Z,9.00
2018-03-22T10:56:43.643Z,9.30
2018-03-22T10:59:11.872Z,9.20
2018-03-22T11:01:45.419Z,9.80
2018-03-22T11:04:13.502Z,9.90
2018-03-22T11:06:46.787Z,9.60
2018-03-22T11:09:14.950Z,9.50
2018-03-22T11:11:42.818Z,9.70
2018-03-22T11:14:10.788Z,9.70
2018-03-22T11:16:38.958Z,10.50
2018-03-22T11:19:06.967Z,11.50
2018-03-22T11:21:35.925Z,11.80
2018-03-22T11:24:04.020Z,11.80
2018-03-22T11:26:32.049Z,12.30
2018-03-22T11:28:59.832Z,11.70
2018-03-22T11:31:27.589Z,10.90
2018-03-22T11:33:55.559Z,10.90
2018-03-22T11:36:23.471Z,11.50
2018-03-22T11:38:52.220Z,12.10
2018-03-22T11:41:20.255Z,12.10
2018-03-22T11:43:48.974Z,13.00
2018-03-22T11:46:16.835Z,13.00
2018-03-22T11:48:44.604Z,13.00
2018-03-22T11:51:12.579Z,12.70
2018-03-22T11:53:40.867Z,12.10
2018-03-22T11:56:08.914Z,11.80
2018-03-22T11:58:37.217Z,11.10
2018-03-22T12:01:05.063Z,10.30
2018-03-22T12:03:33.228Z,9.50
2018-03-22T12:06:01.407Z,8.80
2018-03-22T12:08:29.270Z,8.70
2018-03-22T12:10:57.362Z,8.30
2018-03-22T12:13:25.313Z,8.10
2018-03-22T12:15:53.344Z,7.60
2018-03-22T12:18:21.042Z,7.40
2018-03-22T12:20:48.911Z,7.40
2018-03-22T12:23:16.776Z,7.00
2018-03-22T12:25:45.833Z,7.00
2018-03-22T12:28:13.846Z,7.10
2018-03-22T12:30:41.908Z,7.10
2018-03-22T12:33:10.182Z,6.60
2018-03-22T12:35:38.265Z,6.80
2018-03-22T12:38:06.224Z,6.80
2018-03-22T12:40:34.200Z,6.90
2018-03-22T12:43:02.170Z,7.00
2018-03-22T12:45:30.237Z,6.80
2018-03-22T12:47:58.196Z,6.80
2018-03-22T12:50:26.172Z,6.70
2018-03-22T12:52:54.139Z,6.60
2018-03-22T12:55:22.308Z,6.80
2018-03-22T12:57:50.387Z,7.00
2018-03-22T13:00:18.386Z,7.00
2018-03-22T13:02:46.336Z,6.70
2018-03-22T13:05:14.284Z,6.30
2018-03-22T13:07:42.466Z,6.20
2018-03-22T13:10:10.530Z,5.80
2018-03-22T13:12:38.354Z,5.60
2018-03-22T13:15:06.274Z,5.60
2018-03-22T13:17:34.442Z,5.80
2018-03-22T13:20:02.314Z,5.80
2018-03-22T13:22:30.192Z,5.60
2018-03-22T13:24:58.232Z,5.60
2018-03-22T13:27:26.750Z,5.70
2018-03-22T13:29:55.071Z,5.80
2018-03-22T13:32:23.269Z,5.60
2018-03-22T13:34:51.172Z,5.40
2018-03-22T13:37:19.125Z,5.30
2018-03-22T13:39:47.081Z,5.20
2018-03-22T13:42:14.915Z,4.90
2018-03-22T13:44:43.126Z,4.70
2018-03-22T13:47:11.296Z,4.60
2018-03-22T13:49:39.363Z,4.70
2018-03-22T13:52:07.443Z,4.70
2018-03-22T13:54:35.403Z,4.80
2018-03-22T13:57:03.503Z,4.90
2018-03-22T13:59:32.309Z,5.10
2018-03-22T14:02:01.146Z,5.00
2018-03-22T14:04:29.428Z,5.00
2018-03-22T14:06:57.186Z,4.80
2018-03-22T14:09:25.580Z,4.60
2018-03-22T14:11:53.567Z,4.40
2018-03-22T14:14:21.428Z,4.40
2018-03-22T14:16:49.285Z,4.50
2018-03-22T14:19:17.540Z,4.50
2018-03-22T14:21:45.816Z,4.70
2018-03-22T14:24:14.037Z,4.70
2018-03-22T14:26:43.377Z,4.60
2018-03-22T14:29:11.372Z,4.60
2018-03-22T14:31:39.429Z,4.60
2018-03-22T14:34:07.302Z,4.60
2018-03-22T14:36:35.178Z,4.50
2018-03-22T14:39:02.942Z,4.70
2018-03-22T14:41:31.009Z,4.70
2018-03-22T14:43:59.073Z,4.60
2018-03-22T14:46:27.033Z,4.70
2018-03-22T14:48:54.932Z,4.80
2018-03-22T14:51:22.776Z,4.60
2018-03-22T14:53:51.699Z,4.50
2018-03-22T14:56:20.571Z,4.40
2018-03-22T14:58:48.420Z,4.30
2018-03-22T15:01:16.321Z,4.40
2018-03-22T15:03:44.906Z,4.00
2018-03-22T15:06:13.549Z,3.90
2018-03-22T15:08:41.739Z,3.90
2018-03-22T15:11:09.999Z,4.00
2018-03-22T15:13:38.504Z,4.00
2018-03-22T15:16:06.624Z,4.00
2018-03-22T15:18:34.642Z,3.90
2018-03-22T15:21:03.522Z,3.90
2018-03-22T15:23:31.484Z,3.80
2018-03-22T15:25:59.665Z,3.70
2018-03-22T15:28:27.724Z,3.70
2018-03-22T15:30:56.053Z,3.60
2018-03-22T15:33:24.903Z,3.80
2018-03-22T15:35:52.963Z,3.70
2018-03-22T15:38:21.043Z,3.80
2018-03-22T15:40:49.155Z,3.80
2018-03-22T15:43:17.125Z,3.80
2018-03-22T15:45:46.204Z,3.80
2018-03-22T15:48:14.864Z,4.00
2018-03-22T15:50:43.546Z,3.90
2018-03-22T15:53:11.525Z,4.00
2018-03-22T15:55:40.203Z,3.90
2018-03-22T15:58:08.263Z,3.90
2018-03-22T16:00:36.184Z,3.90
2018-03-22T16:03:05.023Z,3.90
2018-03-22T16:05:32.912Z,3.90
2018-03-22T16:08:00.766Z,3.80
2018-03-22T16:10:28.831Z,3.90
2018-03-22T16:12:57.044Z,3.90
2018-03-22T16:15:26.003Z,3.80
2018-03-22T16:17:53.963Z,3.80
2018-03-22T16:20:23.751Z,3.80
2018-03-22T16:22:51.647Z,3.70
2018-03-22T16:25:21.066Z,3.70
2018-03-22T16:27:49.956Z,3.70
2018-03-22T16:30:18.012Z,3.70
2018-03-22T16:32:46.164Z,3.60
2018-03-22T16:35:14.463Z,3.60
2018-03-22T16:37:43.083Z,3.60
2018-03-22T16:40:11.922Z,3.70
2018-03-22T16:42:39.842Z,3.70
2018-03-22T16:45:08.480Z,3.70
2018-03-22T16:47:36.446Z,3.70
2018-03-22T16:50:05.237Z,3.60
2018-03-22T16:52:33.107Z,3.60
2018-03-22T16:55:01.273Z,3.60
2018-03-22T16:57:29.278Z,3.70
2018-03-22T16:59:58.241Z,3.60
2018-03-22T17:02:26.308Z,3.60
2018-03-22T17:04:54.271Z,3.60
2018-03-22T17:07:22.250Z,3.70
2018-03-22T17:09:50.322Z,3.70
2018-03-22T17:12:18.386Z,3.70
2018-03-22T17:14:46.252Z,3.60
2018-03-22T17:17:14.216Z,3.50
2018-03-22T17:19:43.003Z,3.50
2018-03-22T17:22:11.003Z,3.50
2018-03-22T17:24:38.829Z,3.40
2018-03-22T17:27:06.818Z,3.40
2018-03-22T17:29:35.009Z,3.40
2018-03-22T17:32:02.971Z,3.50
2018-03-22T17:34:31.438Z,3.50
2018-03-22T17:36:59.307Z,3.50
2018-03-22T17:39:27.218Z,3.50
2018-03-22T17:41:56.393Z,3.40
2018-03-22T17:44:24.371Z,3.40
2018-03-22T17:46:52.838Z,3.40
2018-03-22T17:49:21.047Z,3.30
2018-03-22T17:51:49.262Z,3.30
2018-03-22T17:54:17.122Z,3.20
2018-03-22T17:56:44.991Z,3.10
2018-03-22T17:59:12.864Z,3.30
2018-03-22T18:01:41.747Z,3.30
2018-03-22T18:04:10.128Z,3.20
2018-03-22T18:06:38.084Z,3.30
2018-03-22T18:09:06.165Z,3.30
2018-03-22T18:11:34.676Z,3.40
2018-03-22T18:14:02.540Z,3.40
2018-03-22T18:16:30.686Z,3.40
2018-03-22T18:18:59.057Z,3.40
2018-03-22T18:21:27.151Z,3.40
2018-03-22T18:23:56.579Z,3.40
2018-03-22T18:26:25.426Z,3.40
2018-03-22T18:28:53.190Z,3.40
2018-03-22T18:31:21.061Z,3.40
2018-03-22T18:33:49.130Z,3.40
2018-03-22T18:36:17.196Z,3.40
2018-03-22T18:38:45.410Z,3.50
2018-03-22T18:41:14.161Z,3.40
2018-03-22T18:43:42.259Z,3.40
2018-03-22T18:46:10.121Z,3.40
2018-03-22T18:48:38.371Z,3.50
2018-03-22T18:51:06.372Z,3.40
2018-03-22T18:53:34.223Z,3.50
2018-03-22T18:56:09.393Z,3.50
2018-03-22T18:58:38.040Z,3.40
2018-03-22T19:01:06.150Z,3.40
2018-03-22T19:03:35.319Z,3.40
2018-03-22T19:06:03.373Z,3.30
2018-03-22T19:08:31.673Z,3.40
2018-03-22T19:10:59.716Z,3.40
2018-03-22T19:13:27.814Z,3.30
2018-03-22T19:15:55.789Z,3.30
2018-03-22T19:18:24.643Z,3.30
2018-03-22T19:20:52.509Z,3.30
2018-03-22T19:23:21.303Z,3.40
2018-03-22T19:25:49.270Z,3.30
2018-03-22T19:28:17.363Z,3.30
2018-03-22T19:30:45.650Z,3.30
2018-03-22T19:33:14.405Z,3.30
2018-03-22T19:35:43.205Z,3.30
2018-03-22T19:38:11.158Z,3.20
2018-03-22T19:40:39.334Z,3.20
2018-03-22T19:43:07.126Z,3.20
2018-03-22T19:45:35.782Z,3.30
2018-03-22T19:48:03.534Z,3.30
2018-03-22T19:50:39.203Z,3.30
2018-03-22T19:53:10.777Z,3.30
2018-03-22T19:55:43.589Z,3.40
2018-03-22T19:58:11.699Z,3.40
2018-03-22T20:00:39.884Z,3.40
2018-03-22T20:03:07.848Z,3.40
2018-03-22T20:05:35.727Z,3.30
2018-03-22T20:08:03.577Z,3.30
2018-03-22T20:10:31.346Z,3.30
2018-03-22T20:12:59.171Z,3.30
2018-03-22T20:15:27.201Z,3.30
2018-03-22T20:17:55.348Z,3.30
2018-03-22T20:20:23.218Z,3.30
2018-03-22T20:22:51.094Z,3.30
2018-03-22T20:25:19.253Z,3.30
2018-03-22T20:27:47.226Z,3.30
2018-03-22T20:30:15.007Z,3.40
2018-03-22T20:32:42.881Z,3.40
2018-03-22T20:35:11.026Z,3.30
2018-03-22T20:37:40.158Z,3.30
2018-03-22T20:40:08.958Z,3.30
2018-03-22T20:42:37.597Z,3.30
2018-03-22T20:45:05.703Z,3.30
2018-03-22T20:47:34.566Z,3.20
2018-03-22T20:50:02.419Z,3.10
2018-03-22T20:52:30.199Z,3.20
2018-03-22T20:54:58.057Z,3.20
2018-03-22T20:57:26.119Z,3.20
2018-03-22T20:59:54.193Z,3.10
2018-03-22T21:02:22.090Z,3.20
2018-03-22T21:04:49.896Z,3.20
2018-03-22T21:07:17.887Z,3.30
2018-03-22T21:09:45.859Z,3.30
2018-03-22T21:12:13.735Z,3.30
2018-03-22T21:14:41.693Z,3.20
2018-03-22T21:17:09.701Z,3.40
2018-03-22T21:19:38.456Z,3.30
2018-03-22T21:22:06.452Z,3.30
2018-03-22T21:24:35.209Z,3.30
2018-03-22T21:27:03.416Z,3.30
2018-03-22T21:29:32.294Z,3.30
2018-03-22T21:32:00.397Z,3.30
2018-03-22T21:34:29.263Z,3.40
2018-03-22T21:36:57.160Z,3.40
2018-03-22T21:39:25.086Z,3.40
2018-03-22T21:42:05.031Z,3.30
2018-03-22T21:44:32.983Z,3.40
2018-03-22T21:47:12.836Z,3.30
2018-03-22T21:49:40.903Z,3.30
2018-03-22T21:55:11.243Z,3.40
2018-03-22T21:57:39.326Z,3.40
2018-03-22T22:00:07.186Z,3.40
2018-03-22T22:02:34.961Z,3.40
2018-03-22T22:05:02.859Z,3.30
2018-03-22T22:07:31.432Z,3.20
2018-03-22T22:10:00.087Z,3.30
2018-03-22T22:12:27.988Z,3.20
2018-03-22T22:14:56.668Z,3.30
2018-03-22T22:17:24.708Z,3.30
2018-03-22T22:19:52.464Z,3.40
2018-03-22T22:22:20.228Z,3.30
2018-03-22T22:24:47.925Z,3.40
2018-03-22T22:27:15.760Z,3.40
2018-03-22T22:29:43.754Z,3.30
2018-03-22T22:32:11.700Z,3.30
2018-03-22T22:34:39.772Z,3.30
2018-03-22T22:37:07.637Z,3.30
2018-03-22T22:39:35.908Z,3.40
2018-03-22T22:42:03.878Z,3.40
2018-03-22T22:44:31.642Z,3.30
2018-03-22T22:47:00.641Z,3.40
2018-03-22T22:49:28.399Z,3.30
2018-03-22T22:51:56.683Z,3.40
2018-03-22T22:54:24.452Z,3.30
2018-03-22T22:56:52.304Z,3.40
2018-03-22T22:59:20.066Z,3.50
2018-03-22T23:01:48.032Z,3.40
2018-03-22T23:04:15.928Z,3.40
2018-03-22T23:06:43.882Z,3.20
2018-03-22T23:09:11.639Z,3.20
2018-03-22T23:11:39.600Z,3.30
2018-03-22T23:14:07.673Z,3.40
2018-03-22T23:16:35.639Z,3.30
2018-03-22T23:19:03.813Z,3.30
2018-03-22T23:21:31.783Z,3.30
2018-03-22T23:23:59.958Z,3.40
2018-03-22T23:26:27.718Z,3.40
2018-03-22T23:28:56.652Z,3.40
2018-03-22T23:31:25.591Z,3.40
2018-03-22T23:33:53.579Z,3.30
2018-03-22T23:36:21.434Z,3.30
2018-03-22T23:38:49.413Z,3.20
2018-03-22T23:41:17.272Z,3.20
2018-03-22T23:43:45.253Z,3.20
2018-03-22T23:46:13.310Z,3.30
2018-03-22T23:48:41.491Z,3.20
2018-03-22T23:51:09.369Z,3.20
2018-03-22T23:53:37.423Z,3.20
2018-03-22T23:56:05.290Z,3.20
2018-03-22T23:58:33.458Z,3.30
